createdAt,value
2023-10-10T00:01:45.811Z,24.50
2023-10-10T00:04:13.536Z,24.85
2023-10-10T00:06:42.094Z,26.13
2023-10-10T00:09:13.267Z,22.35
2023-10-10T00:11:42.016Z,21.05
2023-10-10T00:14:18.916Z,21.65
2023-10-10T00:16:49.122Z,22.08
2023-10-10T00:19:22.081Z,25.33
2023-10-10T00:21:51.696Z,24.02
2023-10-10T00:24:22.255Z,19.25
2023-10-10T00:26:49.851Z,32.47
2023-10-10T00:29:19.955Z,20.98
2023-10-10T00:31:56.548Z,21.55
2023-10-10T00:34:26.652Z,22.95
2023-10-10T00:36:53.832Z,27.75
2023-10-10T00:39:20.892Z,23.23
2023-10-10T00:41:50.902Z,19.73
2023-10-10T00:44:18.967Z,24.60
2023-10-10T00:46:49.213Z,23.38
2023-10-10T00:49:18.444Z,30.52
2023-10-10T00:51:48.934Z,21.95
2023-10-10T00:54:23.051Z,20.33
2023-10-10T00:56:55.505Z,26.05
2023-10-10T00:59:36.170Z,22.25
2023-10-10T01:02:07.224Z,29.15
2023-10-10T01:04:39.177Z,24.10
2023-10-10T01:07:09.461Z,23.63
2023-10-10T01:09:57.029Z,25.05
2023-10-10T01:12:30.265Z,26.92
2023-10-10T01:14:58.666Z,30.38
2023-10-10T01:17:32.356Z,24.08
2023-10-10T01:20:16.353Z,27.60
2023-10-10T01:22:48.075Z,24.15
2023-10-10T01:25:33.020Z,25.98
2023-10-10T01:28:07.078Z,28.80
2023-10-10T01:31:00.597Z,28.77
2023-10-10T01:33:38.142Z,29.00
2023-10-10T01:36:31.325Z,29.00
2023-10-10T01:39:01.097Z,31.00
2023-10-10T01:41:41.447Z,27.70
2023-10-10T01:44:14.026Z,30.40
2023-10-10T01:46:42.320Z,27.30
2023-10-10T01:49:30.779Z,26.38
2023-10-10T01:52:00.863Z,26.30
2023-10-10T01:54:47.465Z,26.10
2023-10-10T01:57:23.660Z,24.17
2023-10-10T01:59:53.229Z,26.88
2023-10-10T02:02:24.869Z,28.10
2023-10-10T02:04:57.179Z,30.17
2023-10-10T02:07:32.445Z,28.42
2023-10-10T02:10:15.533Z,35.30
2023-10-10T02:12:46.795Z,30.38
2023-10-10T02:15:17.029Z,28.92
2023-10-10T02:17:53.059Z,33.88
2023-10-10T02:20:26.395Z,31.05
2023-10-10T02:23:14.321Z,39.17
2023-10-10T02:25:42.526Z,34.90
2023-10-10T02:28:18.315Z,41.30
2023-10-10T02:30:48.940Z,43.72
2023-10-10T02:33:16.029Z,43.88
2023-10-10T02:35:57.258Z,52.17
2023-10-10T02:38:41.425Z,64.05
2023-10-10T02:41:22.954Z,56.92
2023-10-10T02:43:58.249Z,55.53
2023-10-10T02:46:37.166Z,69.95
2023-10-10T02:49:14.548Z,69.07
2023-10-10T02:51:44.432Z,68.47
2023-10-10T02:54:41.938Z,71.30
2023-10-10T03:00:17.013Z,72.43
2023-10-10T03:02:51.724Z,76.45
2023-10-10T03:05:40.484Z,77.43
2023-10-10T03:08:14.020Z,82.25
2023-10-10T03:10:48.137Z,85.18
2023-10-10T03:13:29.963Z,85.55
2023-10-10T03:16:20.761Z,80.80
2023-10-10T03:19:14.297Z,76.05
2023-10-10T03:21:44.393Z,80.03
2023-10-10T03:24:23.953Z,82.70
2023-10-10T03:26:51.237Z,80.10
2023-10-10T03:29:28.338Z,84.10
2023-10-10T03:32:28.149Z,70.43
2023-10-10T03:34:58.788Z,74.40
2023-10-10T03:37:28.774Z,65.72
2023-10-10T03:39:58.824Z,74.90
2023-10-10T03:42:44.983Z,75.00
2023-10-10T03:45:30.948Z,74.88
2023-10-10T03:48:16.785Z,78.75
2023-10-10T03:51:03.921Z,69.78
2023-10-10T03:53:50.267Z,68.45
2023-10-10T03:56:37.090Z,73.07
2023-10-10T03:59:24.114Z,73.88
2023-10-10T04:02:11.587Z,76.47
2023-10-10T04:05:03.445Z,75.93
2023-10-10T04:07:54.604Z,79.68
2023-10-10T04:10:39.914Z,69.07
2023-10-10T04:13:26.006Z,75.07
2023-10-10T04:16:11.997Z,76.35
2023-10-10T04:18:57.988Z,72.93
2023-10-10T04:21:43.640Z,73.35
2023-10-10T04:24:29.201Z,86.10
2023-10-10T04:27:14.708Z,71.90
2023-10-10T04:30:00.460Z,79.10
2023-10-10T04:32:46.405Z,79.50
2023-10-10T04:35:32.310Z,85.10
2023-10-10T04:38:18.107Z,80.63
2023-10-10T04:41:03.898Z,85.43
2023-10-10T04:43:51.340Z,91.50
2023-10-10T04:46:38.657Z,77.40
2023-10-10T04:49:24.574Z,80.47
2023-10-10T04:52:10.447Z,71.93
2023-10-10T04:54:55.735Z,82.18
2023-10-10T04:57:41.359Z,81.63
2023-10-10T05:00:27.513Z,81.05
2023-10-10T05:03:13.003Z,84.20
2023-10-10T05:05:58.785Z,79.93
2023-10-10T05:08:44.651Z,80.30
2023-10-10T05:11:30.334Z,82.68
2023-10-10T05:14:16.410Z,70.95
2023-10-10T05:17:01.803Z,74.85
2023-10-10T05:19:47.475Z,82.78
2023-10-10T05:22:32.747Z,78.90
2023-10-10T05:25:00.499Z,80.20
2023-10-10T05:27:31.258Z,83.57
2023-10-10T05:29:58.439Z,88.45
2023-10-10T05:32:28.448Z,83.20
2023-10-10T05:34:57.003Z,91.55
2023-10-10T05:37:29.447Z,95.30
2023-10-10T05:39:59.418Z,89.30
2023-10-10T05:42:35.307Z,89.35
2023-10-10T05:45:08.782Z,82.78
2023-10-10T05:47:37.229Z,88.88
2023-10-10T05:50:04.546Z,97.70
2023-10-10T05:52:32.218Z,88.07
2023-10-10T05:54:59.297Z,89.38
2023-10-10T05:57:26.389Z,93.55
2023-10-10T05:59:53.457Z,83.20
2023-10-10T06:02:23.054Z,88.10
2023-10-10T06:04:52.359Z,79.70
2023-10-10T06:07:19.259Z,80.38
2023-10-10T06:09:46.303Z,85.38
2023-10-10T06:12:15.284Z,83.20
2023-10-10T06:14:43.853Z,93.90
2023-10-10T06:17:10.929Z,79.40
2023-10-10T06:19:40.312Z,83.75
2023-10-10T06:22:10.370Z,78.00
2023-10-10T06:24:38.253Z,90.30
2023-10-10T06:27:05.272Z,90.38
2023-10-10T06:29:35.812Z,101.03
2023-10-10T06:32:12.100Z,83.72
2023-10-10T06:34:39.869Z,88.57
2023-10-10T06:37:09.550Z,94.47
2023-10-10T06:39:55.574Z,97.72
2023-10-10T06:42:28.830Z,90.22
2023-10-10T06:44:56.028Z,88.32
2023-10-10T06:47:23.025Z,86.75
2023-10-10T06:49:57.959Z,98.30
2023-10-10T06:52:29.127Z,84.68
2023-10-10T06:54:57.015Z,84.38
2023-10-10T06:57:38.704Z,92.15
2023-10-10T07:00:30.312Z,84.85
2023-10-10T07:02:58.773Z,81.35
2023-10-10T07:05:32.342Z,81.63
2023-10-10T07:08:13.920Z,87.22
2023-10-10T07:10:44.699Z,88.07
2023-10-10T07:13:15.155Z,89.63
2023-10-10T07:15:43.614Z,86.80
2023-10-10T07:18:15.722Z,79.70
2023-10-10T07:21:04.884Z,87.70
2023-10-10T07:23:39.386Z,94.05
2023-10-10T07:26:21.906Z,88.93
2023-10-10T07:28:49.644Z,86.78
2023-10-10T07:31:22.540Z,87.93
2023-10-10T07:34:17.006Z,90.40
2023-10-10T07:36:45.230Z,81.10
2023-10-10T07:39:31.179Z,87.40
2023-10-10T07:41:58.682Z,85.13
2023-10-10T07:44:27.271Z,79.72
2023-10-10T07:47:21.440Z,87.32
2023-10-10T07:49:52.482Z,78.05
2023-10-10T07:52:21.686Z,78.88
2023-10-10T07:54:55.847Z,74.97
2023-10-10T07:57:29.900Z,73.18
2023-10-10T08:00:00.011Z,74.63
2023-10-10T08:02:33.474Z,63.85
2023-10-10T08:05:11.121Z,74.15
2023-10-10T08:07:38.714Z,69.05
2023-10-10T08:10:15.727Z,64.35
2023-10-10T08:12:44.078Z,59.75
2023-10-10T08:15:21.133Z,61.47
2023-10-10T08:17:55.562Z,70.40
2023-10-10T08:20:36.987Z,63.70
2023-10-10T08:23:06.735Z,65.75
2023-10-10T08:25:34.614Z,63.08
2023-10-10T08:28:02.061Z,70.70
2023-10-10T08:30:29.060Z,61.85
2023-10-10T08:32:57.875Z,60.45
2023-10-10T08:35:27.379Z,63.63
2023-10-10T08:37:54.817Z,67.75
2023-10-10T08:40:21.744Z,62.88
2023-10-10T08:42:52.182Z,62.20
2023-10-10T08:45:26.567Z,58.20
2023-10-10T08:48:02.155Z,64.57
2023-10-10T08:50:29.774Z,71.20
2023-10-10T08:52:56.879Z,63.47
2023-10-10T08:55:27.665Z,60.35
2023-10-10T08:57:56.941Z,61.15
2023-10-10T09:00:28.406Z,61.30
2023-10-10T09:02:56.727Z,68.93
2023-10-10T09:05:25.948Z,69.45
2023-10-10T09:07:57.080Z,69.35
2023-10-10T09:10:29.693Z,67.10
2023-10-10T09:12:57.895Z,65.20
2023-10-10T09:15:26.438Z,71.30
2023-10-10T09:17:57.239Z,62.53
2023-10-10T09:20:30.196Z,68.35
2023-10-10T09:23:13.577Z,64.65
2023-10-10T09:25:44.133Z,64.93
2023-10-10T09:28:17.348Z,66.88
2023-10-10T09:30:51.762Z,61.40
2023-10-10T09:33:29.886Z,68.72
2023-10-10T09:36:11.049Z,70.32
2023-10-10T09:38:45.359Z,63.67
2023-10-10T09:41:34.753Z,64.80
2023-10-10T09:44:40.825Z,59.38
2023-10-10T09:47:09.370Z,67.40
2023-10-10T09:49:55.500Z,58.08
2023-10-10T09:52:42.811Z,62.00
2023-10-10T09:55:14.346Z,59.60
2023-10-10T09:58:17.583Z,58.13
2023-10-10T10:00:44.749Z,56.92
2023-10-10T10:03:29.224Z,63.55
2023-10-10T10:06:28.900Z,58.08
2023-10-10T10:09:34.230Z,54.00
2023-10-10T10:12:32.723Z,48.80
2023-10-10T10:15:16.991Z,54.28
2023-10-10T10:18:13.151Z,48.38
2023-10-10T10:20:59.664Z,51.58
2023-10-10T10:23:29.952Z,57.53
2023-10-10T10:26:17.333Z,57.83
2023-10-10T10:28:44.359Z,44.58
2023-10-10T10:31:29.817Z,50.20
2023-10-10T10:34:09.231Z,50.30
2023-10-10T10:36:46.518Z,48.22
2023-10-10T10:39:22.114Z,49.72
2023-10-10T10:41:55.400Z,46.03
2023-10-10T10:44:46.443Z,52.08
2023-10-10T10:47:36.731Z,47.42
2023-10-10T10:52:45.529Z,39.13
2023-10-10T10:55:26.912Z,47.72
2023-10-10T10:58:21.794Z,63.88
2023-10-10T11:00:59.739Z,50.13
2023-10-10T11:03:37.237Z,44.47
2023-10-10T11:06:09.592Z,41.42
2023-10-10T11:09:00.815Z,42.17
2023-10-10T11:11:31.600Z,34.70
2023-10-10T11:14:20.640Z,35.20
2023-10-10T11:16:48.196Z,36.88
2023-10-10T11:19:21.088Z,37.65
2023-10-10T11:21:51.021Z,41.78
2023-10-10T11:24:27.498Z,37.13
2023-10-10T11:27:12.671Z,36.50
2023-10-10T11:29:47.175Z,44.00
2023-10-10T11:32:30.528Z,37.63
2023-10-10T11:35:19.218Z,40.50
2023-10-10T11:37:50.300Z,43.05
2023-10-10T11:40:32.493Z,41.45
2023-10-10T11:43:07.197Z,43.53
2023-10-10T11:45:42.940Z,47.20
2023-10-10T11:48:14.254Z,40.20
2023-10-10T11:50:58.272Z,38.50
2023-10-10T11:53:26.687Z,45.28
2023-10-10T11:55:56.023Z,38.13
2023-10-10T11:58:37.481Z,41.53
2023-10-10T12:01:09.454Z,37.42
2023-10-10T12:03:39.905Z,36.78
2023-10-10T12:06:15.990Z,36.25
2023-10-10T12:08:46.864Z,36.10
2023-10-10T12:11:17.286Z,40.83
2023-10-10T12:13:45.659Z,35.15
2023-10-10T12:16:13.047Z,33.45
2023-10-10T12:19:00.495Z,34.53
2023-10-10T12:21:27.722Z,35.75
2023-10-10T12:24:02.784Z,37.42
2023-10-10T12:26:37.870Z,35.53
2023-10-10T12:29:05.007Z,31.67
2023-10-10T12:31:35.488Z,35.55
2023-10-10T12:34:02.680Z,29.83
2023-10-10T12:36:34.332Z,31.02
2023-10-10T12:39:01.612Z,32.35
2023-10-10T12:41:29.511Z,27.98
2023-10-10T12:43:56.868Z,32.83
2023-10-10T12:46:23.975Z,27.13
2023-10-10T12:48:54.338Z,26.60
2023-10-10T12:51:25.683Z,27.17
2023-10-10T12:54:02.322Z,27.77
2023-10-10T12:56:29.981Z,30.27
2023-10-10T12:59:23.108Z,25.48
2023-10-10T13:01:57.134Z,28.17
2023-10-10T13:04:30.844Z,24.70
2023-10-10T13:07:04.880Z,26.00
2023-10-10T13:09:33.430Z,35.38
2023-10-10T13:12:05.157Z,29.25
2023-10-10T13:14:34.824Z,25.63
2023-10-10T13:17:22.154Z,32.00
2023-10-10T13:19:50.464Z,29.73
2023-10-10T13:22:22.594Z,30.08
2023-10-10T13:24:50.542Z,29.95
2023-10-10T13:27:19.489Z,33.90
2023-10-10T13:29:46.651Z,29.38
2023-10-10T13:32:13.818Z,28.50
2023-10-10T13:34:40.696Z,30.33
2023-10-10T13:37:09.240Z,23.25
2023-10-10T13:39:49.055Z,26.65
2023-10-10T13:42:16.288Z,29.10
2023-10-10T13:44:44.236Z,29.08
2023-10-10T13:47:11.824Z,28.20
2023-10-10T13:49:45.866Z,28.42
2023-10-10T13:52:14.701Z,28.38
2023-10-10T13:54:41.817Z,26.17
2023-10-10T13:57:09.245Z,30.58
2023-10-10T13:59:36.476Z,30.42
2023-10-10T14:02:06.009Z,33.97
2023-10-10T14:04:47.721Z,23.60
2023-10-10T14:07:18.453Z,33.65
2023-10-10T14:10:02.947Z,26.35
2023-10-10T14:12:34.147Z,30.77
2023-10-10T14:15:02.845Z,24.38
2023-10-10T14:17:31.150Z,28.08
2023-10-10T14:19:59.939Z,27.30
2023-10-10T14:22:28.169Z,28.02
2023-10-10T14:24:59.362Z,27.52
2023-10-10T14:27:27.860Z,16.88
2023-10-10T14:29:57.577Z,16.80
2023-10-10T14:32:38.626Z,16.58
2023-10-10T14:35:06.650Z,15.50
2023-10-10T14:37:49.925Z,19.38
2023-10-10T14:40:20.960Z,15.60
2023-10-10T14:42:48.241Z,13.10
2023-10-10T14:45:15.270Z,12.75
2023-10-10T14:47:45.326Z,15.15
2023-10-10T14:50:14.534Z,12.63
2023-10-10T14:52:48.776Z,17.27
2023-10-10T14:55:25.879Z,14.15
2023-10-10T14:57:59.433Z,14.93
2023-10-10T15:00:29.789Z,14.30
2023-10-10T15:02:57.570Z,12.70
2023-10-10T15:05:25.831Z,12.85
2023-10-10T15:07:54.037Z,9.35
2023-10-10T15:10:28.062Z,11.05
2023-10-10T15:12:55.767Z,9.80
2023-10-10T15:15:24.444Z,10.15
2023-10-10T15:17:52.616Z,9.45
2023-10-10T15:20:20.157Z,11.50
2023-10-10T15:22:47.391Z,9.93
2023-10-10T15:25:16.675Z,11.77
2023-10-10T15:27:43.908Z,8.38
2023-10-10T15:30:11.501Z,11.02
2023-10-10T15:32:47.871Z,11.07
2023-10-10T15:35:18.499Z,10.63
2023-10-10T15:37:46.008Z,10.50
2023-10-10T15:40:14.735Z,13.25
2023-10-10T15:42:41.893Z,9.77
2023-10-10T15:45:09.818Z,11.63
2023-10-10T15:47:37.149Z,13.05
2023-10-10T15:50:04.475Z,9.75
2023-10-10T15:52:35.321Z,10.93
2023-10-10T15:55:06.956Z,12.55
2023-10-10T15:57:37.231Z,7.93
2023-10-10T16:00:11.790Z,11.90
2023-10-10T16:02:41.339Z,10.43
2023-10-10T16:05:08.577Z,10.68
2023-10-10T16:07:35.561Z,9.63
2023-10-10T16:10:04.252Z,11.65
2023-10-10T16:12:31.617Z,9.45
2023-10-10T16:15:01.495Z,12.93
2023-10-10T16:17:29.953Z,10.00
2023-10-10T16:19:57.032Z,11.70
2023-10-10T16:22:24.064Z,14.50
2023-10-10T16:24:53.894Z,20.15
2023-10-10T16:27:23.055Z,10.98
2023-10-10T16:29:50.081Z,16.00
2023-10-10T16:32:19.756Z,14.98
2023-10-10T16:34:47.877Z,13.00
2023-10-10T16:37:17.664Z,20.65
2023-10-10T16:39:46.498Z,24.20
2023-10-10T16:42:15.364Z,19.98
2023-10-10T16:44:43.141Z,20.80
2023-10-10T16:47:10.921Z,18.10
2023-10-10T16:49:38.675Z,22.38
2023-10-10T16:52:07.400Z,23.25
2023-10-10T16:54:37.179Z,19.92
2023-10-10T16:57:05.765Z,19.83
2023-10-10T16:59:33.076Z,21.83
2023-10-10T17:02:00.771Z,24.88
2023-10-10T17:04:28.325Z,23.33
2023-10-10T17:06:55.635Z,23.27
2023-10-10T17:09:24.378Z,24.65
2023-10-10T17:11:54.337Z,26.92
2023-10-10T17:14:21.584Z,20.27
2023-10-10T17:16:48.516Z,29.27
2023-10-10T17:19:18.345Z,26.88
2023-10-10T17:21:48.969Z,24.27
2023-10-10T17:24:17.041Z,25.00
2023-10-10T17:26:45.338Z,24.40
2023-10-10T17:29:13.232Z,32.25
2023-10-10T17:31:43.603Z,28.85
2023-10-10T17:34:16.744Z,28.23
2023-10-10T17:36:44.805Z,25.38
2023-10-10T17:39:17.480Z,24.58
2023-10-10T17:41:49.461Z,25.83
2023-10-10T17:44:19.444Z,24.35
2023-10-10T17:46:48.205Z,25.20
2023-10-10T17:49:16.374Z,23.35
2023-10-10T17:51:46.129Z,27.45
2023-10-10T17:54:13.649Z,25.73
2023-10-10T17:56:41.114Z,22.92
2023-10-10T17:59:08.460Z,23.65
2023-10-10T18:01:35.651Z,20.08
2023-10-10T18:04:04.647Z,23.25
2023-10-10T18:06:36.299Z,26.55
2023-10-10T18:09:09.608Z,22.95
2023-10-10T18:11:38.201Z,23.80
2023-10-10T18:14:08.578Z,21.73
2023-10-10T18:16:36.529Z,27.13
2023-10-10T18:19:04.552Z,26.92
2023-10-10T18:21:33.420Z,26.77
2023-10-10T18:24:07.372Z,28.83
2023-10-10T18:26:39.065Z,26.48
2023-10-10T18:29:06.994Z,28.02
2023-10-10T18:31:39.227Z,22.85
2023-10-10T18:36:40.630Z,23.92
2023-10-10T18:39:14.382Z,22.67
2023-10-10T18:41:46.042Z,19.95
2023-10-10T18:44:17.379Z,16.88
2023-10-10T18:46:44.974Z,19.50
2023-10-10T18:49:12.350Z,22.30
2023-10-10T18:51:39.287Z,19.13
2023-10-10T18:54:10.068Z,17.88
2023-10-10T18:56:39.149Z,19.10
2023-10-10T18:59:06.694Z,22.27
2023-10-10T19:01:35.881Z,18.27
2023-10-10T19:04:03.131Z,18.50
2023-10-10T19:06:30.108Z,17.05
2023-10-10T19:09:01.574Z,16.67
2023-10-10T19:11:28.819Z,14.55
2023-10-10T19:13:56.985Z,16.55
2023-10-10T19:16:24.365Z,14.25
2023-10-10T19:18:51.606Z,13.30
2023-10-10T19:21:19.391Z,13.85
2023-10-10T19:23:51.518Z,16.98
2023-10-10T19:26:19.068Z,18.13
2023-10-10T19:28:54.522Z,11.60
2023-10-10T19:31:23.538Z,10.05
2023-10-10T19:33:51.919Z,14.13
2023-10-10T19:36:21.381Z,13.10
2023-10-10T19:38:49.221Z,11.65
2023-10-10T19:41:19.291Z,13.48
2023-10-10T19:43:46.922Z,17.45
2023-10-10T19:46:14.169Z,14.30
2023-10-10T19:48:42.520Z,12.05
2023-10-10T19:51:19.888Z,10.82
2023-10-10T19:53:51.812Z,11.30
2023-10-10T19:56:19.591Z,16.08
2023-10-10T19:58:47.338Z,10.65
2023-10-10T20:01:15.410Z,12.90
2023-10-10T20:03:45.659Z,11.93
2023-10-10T20:06:22.275Z,15.65
2023-10-10T20:08:56.766Z,13.27
2023-10-10T20:11:25.372Z,11.82
2023-10-10T20:13:53.121Z,18.67
2023-10-10T20:16:22.919Z,21.02
2023-10-10T20:18:55.862Z,17.30
2023-10-10T20:21:25.633Z,19.40
2023-10-10T20:23:52.779Z,26.85
2023-10-10T20:26:20.821Z,21.38
2023-10-10T20:28:51.672Z,18.30
2023-10-10T20:31:19.570Z,23.35
2023-10-10T20:33:51.195Z,22.00
2023-10-10T20:36:18.671Z,26.58
2023-10-10T20:38:46.199Z,20.90
2023-10-10T20:41:15.583Z,19.77
2023-10-10T20:43:43.873Z,24.88
2023-10-10T20:46:13.330Z,23.40
2023-10-10T20:48:40.441Z,20.45
2023-10-10T20:51:15.009Z,26.00
2023-10-10T20:53:43.648Z,24.20
2023-10-10T20:56:10.855Z,23.00
2023-10-10T20:58:39.742Z,20.30
2023-10-10T21:01:10.878Z,20.85
2023-10-10T21:03:39.384Z,20.40
2023-10-10T21:06:06.657Z,23.38
2023-10-10T21:08:34.178Z,23.65
2023-10-10T21:11:08.391Z,31.65
2023-10-10T21:13:36.091Z,31.25
2023-10-10T21:16:03.078Z,48.83
2023-10-10T21:18:30.204Z,33.00
2023-10-10T21:21:04.048Z,24.85
2023-10-10T21:23:32.364Z,25.58
2023-10-10T21:25:59.446Z,24.83
2023-10-10T21:28:27.162Z,27.35
2023-10-10T21:30:54.296Z,30.63
2023-10-10T21:33:21.606Z,28.70
2023-10-10T21:35:51.066Z,34.28
2023-10-10T21:38:18.803Z,34.00
2023-10-10T21:40:45.800Z,39.28
2023-10-10T21:43:12.851Z,42.25
2023-10-10T21:45:40.484Z,35.33
2023-10-10T21:48:11.216Z,29.33
2023-10-10T21:50:42.538Z,30.60
2023-10-10T21:53:09.922Z,43.65
2023-10-10T21:55:41.978Z,39.22
2023-10-10T21:58:15.088Z,39.83
2023-10-10T22:00:42.330Z,37.17
2023-10-10T22:03:09.843Z,37.47
2023-10-10T22:05:38.530Z,35.72
2023-10-10T22:08:07.975Z,38.17
2023-10-10T22:10:36.887Z,31.70
2023-10-10T22:13:05.498Z,32.70
2023-10-10T22:15:36.542Z,36.00
2023-10-10T22:18:07.813Z,38.53
2023-10-10T22:20:35.568Z,40.22
2023-10-10T22:23:02.958Z,38.35
2023-10-10T22:25:33.431Z,40.88
2023-10-10T22:28:01.955Z,41.63
2023-10-10T22:30:34.045Z,35.80
2023-10-10T22:33:01.561Z,29.70
2023-10-10T22:35:30.202Z,41.88
2023-10-10T22:37:57.615Z,31.70
2023-10-10T22:40:28.380Z,34.05
2023-10-10T22:42:57.376Z,26.67
2023-10-10T22:45:24.909Z,26.38
2023-10-10T22:47:57.944Z,32.50
2023-10-10T22:50:31.784Z,30.30
2023-10-10T22:53:03.802Z,28.25
2023-10-10T22:55:35.071Z,33.55
2023-10-10T22:58:08.386Z,33.35
2023-10-10T23:00:40.172Z,23.80
2023-10-10T23:03:11.333Z,32.03
2023-10-10T23:05:46.081Z,32.05
2023-10-10T23:08:14.503Z,34.45
2023-10-10T23:10:41.684Z,36.95
2023-10-10T23:13:09.100Z,31.25
2023-10-10T23:15:39.066Z,48.95
2023-10-10T23:18:12.398Z,32.42
2023-10-10T23:20:42.664Z,33.88
2023-10-10T23:23:14.247Z,39.20
2023-10-10T23:25:41.423Z,36.15
2023-10-10T23:28:11.559Z,39.45
2023-10-10T23:30:40.760Z,42.42
2023-10-10T23:33:13.702Z,30.40
2023-10-10T23:35:41.820Z,43.65
2023-10-10T23:38:10.217Z,38.40
2023-10-10T23:40:45.890Z,38.63
2023-10-10T23:43:20.356Z,39.78
2023-10-10T23:45:56.156Z,32.90
2023-10-10T23:48:30.613Z,35.03
2023-10-10T23:50:58.891Z,34.60
2023-10-10T23:53:25.922Z,32.88
2023-10-10T23:55:56.437Z,38.83
2023-10-10T23:58:26.819Z,32.88
